CYBWCYXC

Guest
Details From CYBW - Calgary Springbank
To CYXC - CANADIAN ROCKIES INTL
Flight Number -
Tags decoded
Created
Modified
Stats Distance 128 nm / 237 km
Max Altitude 0 ft / 0 m
Waypoints 6
Social Downloads 2
Likes 0
Share VATSIM

Download

Looking for another format? Having issues loading an existing format? Contact us
Advertisement - Login to hide

Notes

Requested: CYBW GABOL CONER SX XC CYXC

Route

CYBW GABOL CONER SX XC CYXC

ID Type Via Altitude Latitude Longitude Leg Dist Tot Dist Heading (true) Name
O CYBW APT - 0 ft / 0 m 51.11176˚ -114.37654˚ - 0 nm - Calgary Springbank
GABOL FIX - 0 ft / 0 m 50.91700˚ -114.02150˚ 17 nm 17 nm 131° / 131° -
CONER FIX - 0 ft / 0 m 50.16556˚ -115.24944˚ 65 nm 82 nm 227° / 226° -
SX NDB - 0 ft / 0 m 49.95492˚ -115.79233˚ 24 nm 107 nm 239° / 239° SKOOKUM NDB
XC NDB - 0 ft / 0 m 49.68333˚ -115.78333˚ 16 nm 123 nm 179° / 179° CRANBROOK NDB
O CYXC APT - 0 ft / 0 m 49.61212˚ -115.78205˚ 4 nm 127 nm 179° / 179° CANADIAN ROCKIES INTL

Altitude Profile

Advertisement - Login to hide

CYBW

Details ICAO CYBW (YBW)
Name Calgary Springbank
Region Canada
Timezone America/Edmonton (UTC-6.0)
Stats Elevation 3,937 ft / 1,200 m (AMSL)
Location 51.111765° -114.376537°
Runways 2
Magnetic Variation 14.171° E

METAR

CYBW 241000Z AUTO 10009KT 9SM FEW130 OVC150 15/06 A2976 RMK SLP060 DENSITY ALT 5000FT

Decode

TAF

TAF CYBW 232338Z 2400/2404 14010KT P6SM SCT100 RMK FCST BASED ON AUTO OBS. NXT FCST WILL BE ISSUED AT 241145Z

Decode

Departure Runways

ID Width Length Bearing (true) Bearing (mag) Surface Threshold Offset Overrun Length
07 100 ft / 30 m 3,389 ft / 1,033 m 89.99° 75.82° Asphalt 0 ft / 0 m 0 ft / 0 m
16 75 ft / 23 m 3,083 ft / 940 m 180.71° 166.54° Asphalt 0 ft / 0 m 0 ft / 0 m
25 100 ft / 30 m 3,389 ft / 1,033 m 270.01° 255.84° Asphalt 0 ft / 0 m 0 ft / 0 m
34 75 ft / 23 m 3,083 ft / 940 m 0.71° 346.54° Asphalt 0 ft / 0 m 0 ft / 0 m

CYXC

Details ICAO CYXC (YXC)
Name CANADIAN ROCKIES INTL
Region Canada
Timezone America/Edmonton (UTC-6.0)
Stats Elevation 3,084 ft / 940 m (AMSL)
Location 49.612121° -115.782055°
Runways 1
Magnetic Variation 14.391° E

METAR

CYXC 241000Z 16008KT 140V210 25SM FEW100 BKN150 BKN220 17/08 A2984 RMK AC1AC4CI1 SLP086 DENSITY ALT 4100FT

Decode

TAF

TAF CYXC 240638Z 2407/2419 22005KT P6SM SCT100 BKN140 BECMG 2410/2412 VRB03KT RMK NXT FCST BY 241300Z

Decode

Destination Runways

ID Width Length Bearing (true) Bearing (mag) Surface Threshold Offset Overrun Length
16 150 ft / 46 m 8,000 ft / 2,438 m 179.16° 164.77° Asphalt 780 ft / 238 m 0 ft / 0 m
34 150 ft / 46 m 8,000 ft / 2,438 m 359.16° 344.77° Asphalt 0 ft / 0 m 0 ft / 0 m

Approach Navaids

Runway Type Ident Frequency Range Bearing (true) Bearing (mag) Slope Elevation
16 Localiser IXC 110.30 MHz 18 nm / 33 km 179.82° 165.43° - 3,058 ft / 932 m (AMSL)
16 Glidescope IXC 110.30 MHz 10 nm / 19 km 179.16° 164.77° 3.00° 3,015 ft / 919 m (AMSL)

Popular Alternatives